createdAt,value
2022-12-18T00:01:35.069Z,-3.96
2022-12-18T00:04:04.498Z,-4.03
2022-12-18T00:06:31.565Z,-4.06
2022-12-18T00:08:58.557Z,-4.02
2022-12-18T00:11:26.914Z,-4.07
2022-12-18T00:13:56.579Z,-4.08
2022-12-18T00:16:24.604Z,-4.03
2022-12-18T00:18:56.610Z,-4.07
2022-12-18T00:21:23.274Z,-4.10
2022-12-18T00:23:50.502Z,-4.10
2022-12-18T00:26:22.948Z,-4.15
2022-12-18T00:28:49.868Z,-4.22
2022-12-18T00:31:20.035Z,-4.22
2022-12-18T00:33:46.750Z,-4.23
2022-12-18T00:36:18.486Z,-4.21
2022-12-18T00:38:45.043Z,-4.20
2022-12-18T00:41:13.328Z,-4.17
2022-12-18T00:43:41.074Z,-4.17
2022-12-18T00:46:07.664Z,-4.16
2022-12-18T00:48:34.091Z,-4.23
2022-12-18T00:51:00.397Z,-4.21
2022-12-18T00:53:27.025Z,-4.21
2022-12-18T00:55:53.367Z,-4.26
2022-12-18T00:58:19.830Z,-4.26
2022-12-18T01:00:46.232Z,-4.25
2022-12-18T01:03:15.783Z,-4.32
2022-12-18T01:05:42.747Z,-4.27
2022-12-18T01:08:09.303Z,-4.28
2022-12-18T01:10:35.669Z,-4.32
2022-12-18T01:13:02.130Z,-4.34
2022-12-18T01:15:28.682Z,-4.37
2022-12-18T01:17:55.216Z,-4.40
2022-12-18T01:20:21.701Z,-4.41
2022-12-18T01:22:48.048Z,-4.48
2022-12-18T01:25:14.408Z,-4.52
2022-12-18T01:27:40.897Z,-4.52
2022-12-18T01:30:07.992Z,-4.54
2022-12-18T01:32:34.679Z,-4.59
2022-12-18T01:35:01.052Z,-4.60
2022-12-18T01:37:27.415Z,-4.61
2022-12-18T01:39:54.193Z,-4.65
2022-12-18T01:42:21.462Z,-4.68
2022-12-18T01:44:53.949Z,-4.69
2022-12-18T01:47:25.818Z,-4.73
2022-12-18T01:49:55.390Z,-4.76
2022-12-18T01:52:23.225Z,-4.74
2022-12-18T01:54:51.827Z,-4.77
2022-12-18T01:57:18.345Z,-4.77
2022-12-18T01:59:48.810Z,-4.79
2022-12-18T02:02:17.556Z,-4.81
2022-12-18T02:04:49.405Z,-4.85
2022-12-18T02:07:32.081Z,-4.87
2022-12-18T02:10:03.820Z,-4.86
2022-12-18T02:12:56.210Z,-4.87
2022-12-18T02:15:25.472Z,-4.89
2022-12-18T02:18:05.276Z,-4.92
2022-12-18T02:20:53.235Z,-4.99
2022-12-18T02:23:33.276Z,-5.08
2022-12-18T02:26:15.733Z,-5.02
2022-12-18T02:29:01.134Z,-5.18
2022-12-18T02:31:31.870Z,-5.20
2022-12-18T02:34:03.366Z,-5.26
2022-12-18T02:36:30.927Z,-5.34
2022-12-18T02:38:59.293Z,-5.38
2022-12-18T02:41:26.595Z,-5.47
2022-12-18T02:43:59.358Z,-5.51
2022-12-18T02:46:33.245Z,-5.53
2022-12-18T02:49:24.630Z,-5.53
2022-12-18T02:52:02.232Z,-5.58
2022-12-18T02:54:37.411Z,-5.65
2022-12-18T02:57:16.096Z,-5.71
2022-12-18T02:59:55.850Z,-5.73
2022-12-18T03:02:52.446Z,-5.73
2022-12-18T03:05:29.181Z,-5.76
2022-12-18T03:08:04.528Z,-5.76
2022-12-18T03:10:35.271Z,-5.73
2022-12-18T03:13:06.907Z,-5.75
2022-12-18T03:15:43.138Z,-5.76
2022-12-18T03:18:15.894Z,-5.75
2022-12-18T03:20:45.896Z,-5.86
2022-12-18T03:23:16.577Z,-5.94
2022-12-18T03:25:45.529Z,-5.95
2022-12-18T03:28:17.169Z,-6.01
2022-12-18T03:30:46.960Z,-6.01
2022-12-18T03:33:19.917Z,-6.08
2022-12-18T03:35:47.682Z,-6.07
2022-12-18T03:38:14.667Z,-6.09
2022-12-18T03:40:44.162Z,-6.10
2022-12-18T03:43:38.416Z,-6.07
2022-12-18T03:46:16.543Z,-6.04
2022-12-18T03:48:47.164Z,-6.03
2022-12-18T03:51:25.504Z,-5.97
2022-12-18T03:53:58.819Z,-5.94
2022-12-18T03:56:30.443Z,-5.93
2022-12-18T03:59:00.209Z,-5.91
2022-12-18T04:01:32.030Z,-5.84
2022-12-18T04:04:01.385Z,-5.81
2022-12-18T04:06:30.267Z,-5.77
2022-12-18T04:08:58.898Z,-5.72
2022-12-18T04:11:25.495Z,-5.73
2022-12-18T04:13:56.938Z,-5.79
2022-12-18T04:16:23.362Z,-5.78
2022-12-18T04:18:49.752Z,-5.77
2022-12-18T04:21:16.088Z,-5.77
2022-12-18T04:23:42.877Z,-5.83
2022-12-18T04:26:09.580Z,-5.82
2022-12-18T04:28:35.886Z,-5.86
2022-12-18T04:31:02.246Z,-5.79
2022-12-18T04:33:28.750Z,-5.73
2022-12-18T04:35:55.132Z,-5.70
2022-12-18T04:38:21.697Z,-5.68
2022-12-18T04:40:48.382Z,-5.71
2022-12-18T04:43:14.828Z,-5.68
2022-12-18T04:45:41.167Z,-5.62
2022-12-18T04:48:07.694Z,-5.65
2022-12-18T04:50:34.069Z,-5.62
2022-12-18T04:53:00.695Z,-5.67
2022-12-18T04:55:27.833Z,-5.70
2022-12-18T04:57:54.668Z,-5.72
2022-12-18T05:00:21.763Z,-5.74
2022-12-18T05:02:48.308Z,-5.78
2022-12-18T05:05:15.018Z,-5.82
2022-12-18T05:07:41.375Z,-5.87
2022-12-18T05:10:08.950Z,-5.95
2022-12-18T05:12:36.815Z,-6.08
2022-12-18T05:15:06.913Z,-6.17
2022-12-18T05:17:33.245Z,-6.22
2022-12-18T05:19:59.606Z,-6.24
2022-12-18T05:22:25.945Z,-6.30
2022-12-18T05:24:52.243Z,-6.32
2022-12-18T05:27:18.595Z,-6.39
2022-12-18T05:29:44.930Z,-6.38
2022-12-18T05:32:11.519Z,-6.42
2022-12-18T05:34:37.880Z,-6.40
2022-12-18T05:37:04.375Z,-6.43
2022-12-18T05:39:30.941Z,-6.51
2022-12-18T05:41:57.427Z,-6.52
2022-12-18T05:44:23.911Z,-6.51
2022-12-18T05:46:50.310Z,-6.58
2022-12-18T05:49:16.808Z,-6.55
2022-12-18T05:51:43.329Z,-6.54
2022-12-18T05:54:09.684Z,-6.54
2022-12-18T05:56:36.698Z,-6.44
2022-12-18T05:59:03.010Z,-6.42
2022-12-18T06:01:29.555Z,-6.40
2022-12-18T06:03:56.314Z,-6.40
2022-12-18T06:06:25.584Z,-6.36
2022-12-18T06:08:52.351Z,-6.36
2022-12-18T06:11:24.591Z,-6.32
2022-12-18T06:13:58.248Z,-6.13
2022-12-18T06:16:26.159Z,-6.07
2022-12-18T06:18:52.589Z,-5.99
2022-12-18T06:21:19.506Z,-5.79
2022-12-18T06:23:45.882Z,-5.73
2022-12-18T06:26:13.692Z,-5.72
2022-12-18T06:28:40.743Z,-5.68
2022-12-18T06:31:07.992Z,-5.61
2022-12-18T06:33:35.415Z,-5.60
2022-12-18T06:36:07.957Z,-5.69
2022-12-18T06:38:35.588Z,-5.67
2022-12-18T06:41:06.564Z,-5.70
2022-12-18T06:43:32.878Z,-5.71
2022-12-18T06:46:03.681Z,-5.69
2022-12-18T06:48:30.614Z,-5.70
2022-12-18T06:50:57.379Z,-5.74
2022-12-18T06:53:24.235Z,-5.77
2022-12-18T06:55:51.742Z,-5.82
2022-12-18T06:58:19.930Z,-5.75
2022-12-18T07:00:46.299Z,-5.73
2022-12-18T07:03:12.740Z,-5.74
2022-12-18T07:05:42.342Z,-5.79
2022-12-18T07:08:08.831Z,-5.79
2022-12-18T07:10:49.736Z,-5.83
2022-12-18T07:13:18.770Z,-5.78
2022-12-18T07:15:45.281Z,-5.81
2022-12-18T07:18:11.717Z,-5.81
2022-12-18T07:20:38.028Z,-5.83
2022-12-18T07:23:05.670Z,-5.80
2022-12-18T07:25:38.395Z,-5.79
2022-12-18T07:28:05.419Z,-5.72
2022-12-18T07:30:32.013Z,-5.73
2022-12-18T07:32:58.422Z,-5.72
2022-12-18T07:35:25.563Z,-5.76
2022-12-18T07:37:52.196Z,-5.71
2022-12-18T07:40:18.620Z,-5.74
2022-12-18T07:42:44.937Z,-5.66
2022-12-18T07:45:11.579Z,-5.68
2022-12-18T07:47:38.202Z,-5.66
2022-12-18T07:50:05.408Z,-5.64
2022-12-18T07:52:31.743Z,-5.61
2022-12-18T07:55:00.601Z,-5.53
2022-12-18T07:57:49.498Z,-5.49
2022-12-18T08:00:14.161Z,-5.51
2022-12-18T08:02:40.649Z,-5.40
2022-12-18T08:05:09.129Z,-5.36
2022-12-18T08:07:35.527Z,-5.31
2022-12-18T08:10:01.858Z,-5.20
2022-12-18T08:12:28.202Z,-4.98
2022-12-18T08:14:54.515Z,-4.90
2022-12-18T08:17:22.358Z,-4.88
2022-12-18T08:19:48.652Z,-4.89
2022-12-18T08:22:14.960Z,-4.90
2022-12-18T08:24:41.385Z,-4.87
2022-12-18T08:29:54.180Z,-4.80
2022-12-18T08:32:20.617Z,-4.76
2022-12-18T08:34:48.279Z,-4.73
2022-12-18T08:37:14.710Z,-4.61
2022-12-18T08:39:41.448Z,-4.53
2022-12-18T08:42:10.201Z,-4.44
2022-12-18T08:44:36.930Z,-4.31
2022-12-18T08:47:03.379Z,-4.26
2022-12-18T08:49:29.842Z,-4.06
2022-12-18T08:51:58.310Z,-3.89
2022-12-18T08:54:26.167Z,-3.66
2022-12-18T08:56:52.989Z,-3.32
2022-12-18T08:59:20.721Z,-3.03
2022-12-18T09:01:48.170Z,-2.68
2022-12-18T09:04:14.649Z,-2.90
2022-12-18T09:06:41.571Z,-2.94
2022-12-18T09:09:11.547Z,-3.01
2022-12-18T09:11:38.012Z,-2.91
2022-12-18T09:14:06.202Z,-2.84
2022-12-18T09:16:33.889Z,-3.11
2022-12-18T09:19:00.821Z,-3.12
2022-12-18T09:21:29.858Z,-3.22
2022-12-18T09:23:57.361Z,-3.25
2022-12-18T09:26:24.665Z,-3.22
2022-12-18T09:28:51.534Z,-3.29
2022-12-18T09:31:20.320Z,-3.17
2022-12-18T09:33:49.455Z,-3.16
2022-12-18T09:36:17.511Z,-3.18
2022-12-18T09:38:45.251Z,-3.21
2022-12-18T09:41:32.546Z,-3.03
2022-12-18T09:44:06.216Z,-3.12
2022-12-18T09:46:39.574Z,-3.12
2022-12-18T09:49:13.134Z,-3.11
2022-12-18T09:51:51.475Z,-2.97
2022-12-18T09:54:24.724Z,-3.00
2022-12-18T09:56:51.382Z,-2.94
2022-12-18T09:59:24.039Z,-2.93
2022-12-18T10:01:53.304Z,-2.87
2022-12-18T10:04:20.237Z,-2.88
2022-12-18T10:07:11.314Z,-2.81
2022-12-18T10:09:59.600Z,-2.75
2022-12-18T10:12:43.831Z,-2.79
2022-12-18T10:15:35.212Z,-2.78
2022-12-18T10:18:22.917Z,-2.69
2022-12-18T10:20:53.287Z,-2.66
2022-12-18T10:23:31.045Z,-2.60
2022-12-18T10:26:06.719Z,-2.56
2022-12-18T10:28:38.868Z,-2.51
2022-12-18T10:31:16.898Z,-2.52
2022-12-18T10:33:43.653Z,-2.49
2022-12-18T10:36:10.188Z,-2.47
2022-12-18T10:38:39.878Z,-2.42
2022-12-18T10:41:24.256Z,-2.39
2022-12-18T10:44:13.390Z,-2.32
2022-12-18T10:46:40.408Z,-2.30
2022-12-18T10:49:20.747Z,-2.26
2022-12-18T10:51:49.398Z,-2.20
2022-12-18T10:54:19.931Z,-2.11
2022-12-18T10:56:46.790Z,-2.03
2022-12-18T10:59:15.735Z,-1.95
2022-12-18T11:02:00.328Z,-1.89
2022-12-18T11:04:30.010Z,-1.88
2022-12-18T11:07:08.460Z,-1.87
2022-12-18T11:09:39.774Z,-1.82
2022-12-18T11:12:20.626Z,-1.81
2022-12-18T11:14:50.500Z,-1.76
2022-12-18T11:17:39.903Z,-1.71
2022-12-18T11:20:21.602Z,-1.69
2022-12-18T11:23:16.149Z,-1.59
2022-12-18T11:25:52.462Z,-1.60
2022-12-18T11:28:35.083Z,-1.56
2022-12-18T11:31:20.702Z,-1.54
2022-12-18T11:34:27.013Z,-1.45
2022-12-18T11:36:46.793Z,-1.36
2022-12-18T11:39:21.446Z,-1.37
2022-12-18T11:42:28.840Z,-1.32
2022-12-18T11:45:09.792Z,-1.36
2022-12-18T11:47:53.130Z,-1.33
2022-12-18T11:50:25.249Z,-1.31
2022-12-18T11:52:56.687Z,-1.25
2022-12-18T11:55:44.744Z,-1.19
2022-12-18T11:58:46.413Z,-1.15
2022-12-18T12:01:24.938Z,-1.16
2022-12-18T12:03:57.387Z,-1.12
2022-12-18T12:06:43.151Z,-1.13
2022-12-18T12:09:35.325Z,-1.11
2022-12-18T12:12:40.271Z,-1.09
2022-12-18T12:15:31.636Z,-1.00
2022-12-18T12:18:20.816Z,-0.97
2022-12-18T12:21:11.976Z,-0.97
2022-12-18T12:23:44.170Z,-0.95
2022-12-18T12:26:53.503Z,-0.93
2022-12-18T12:30:04.312Z,-0.88
2022-12-18T12:33:09.830Z,-0.88
2022-12-18T12:36:03.686Z,-0.86
2022-12-18T12:38:55.355Z,-0.82
2022-12-18T12:41:26.199Z,-0.82
2022-12-18T12:43:53.728Z,-0.80
2022-12-18T12:46:24.916Z,-0.74
2022-12-18T12:48:57.142Z,-0.70
2022-12-18T12:51:32.987Z,-0.66
2022-12-18T12:54:01.308Z,-0.71
2022-12-18T12:57:03.118Z,-0.66
2022-12-18T12:59:55.808Z,-0.64
2022-12-18T13:03:16.356Z,-0.62
2022-12-18T13:05:59.805Z,-0.61
2022-12-18T13:08:51.524Z,-0.62
2022-12-18T13:11:48.635Z,-0.58
2022-12-18T13:14:24.723Z,-0.55
2022-12-18T13:16:52.090Z,-0.51
2022-12-18T13:19:27.240Z,-0.49
2022-12-18T13:21:55.949Z,-0.46
2022-12-18T13:24:27.494Z,-0.42
2022-12-18T13:26:54.769Z,-0.41
2022-12-18T13:29:46.884Z,-0.39
2022-12-18T13:32:22.967Z,-0.39
2022-12-18T13:35:22.695Z,-0.37
2022-12-18T13:37:54.416Z,-0.37
2022-12-18T13:40:43.729Z,-0.35
2022-12-18T13:43:40.961Z,-0.32
2022-12-18T13:46:26.570Z,-0.33
2022-12-18T13:49:00.769Z,-0.30
2022-12-18T13:51:29.595Z,-0.32
2022-12-18T13:54:02.207Z,-0.30
2022-12-18T13:56:32.577Z,-0.29
2022-12-18T13:59:12.932Z,-0.27
2022-12-18T14:01:45.311Z,-0.25
2022-12-18T14:04:22.398Z,-0.27
2022-12-18T14:06:52.567Z,-0.26
2022-12-18T14:09:25.915Z,-0.27
2022-12-18T14:11:54.229Z,-0.25
2022-12-18T14:14:20.683Z,-0.24
2022-12-18T14:16:49.087Z,-0.24
2022-12-18T14:19:18.634Z,-0.24
2022-12-18T14:21:50.398Z,-0.22
2022-12-18T14:24:20.189Z,-0.22
2022-12-18T14:26:48.071Z,-0.24
2022-12-18T14:29:24.609Z,-0.23
2022-12-18T14:32:20.133Z,-0.20
2022-12-18T14:34:53.941Z,-0.21
2022-12-18T14:37:25.706Z,-0.21
2022-12-18T14:40:07.115Z,-0.24
2022-12-18T14:42:37.949Z,-0.20
2022-12-18T14:45:43.690Z,-0.16
2022-12-18T14:48:22.888Z,-0.19
2022-12-18T14:51:18.832Z,-0.22
2022-12-18T14:53:54.469Z,-0.22
2022-12-18T14:56:23.168Z,-0.24
2022-12-18T14:58:53.728Z,-0.22
2022-12-18T15:01:39.773Z,-0.19
2022-12-18T15:04:26.674Z,-0.23
2022-12-18T15:07:18.034Z,-0.19
2022-12-18T15:10:11.056Z,-0.18
2022-12-18T15:12:39.607Z,-0.18
2022-12-18T15:15:26.425Z,-0.16
2022-12-18T15:18:19.390Z,-0.15
2022-12-18T15:20:51.614Z,-0.13
2022-12-18T15:23:24.104Z,-0.11
2022-12-18T15:26:06.013Z,-0.05
2022-12-18T15:28:39.537Z,-0.05
2022-12-18T15:31:09.870Z,-0.07
2022-12-18T15:33:39.876Z,-0.10
2022-12-18T15:36:14.731Z,-0.04
2022-12-18T15:38:41.541Z,-0.07
2022-12-18T15:41:17.789Z,-0.07
2022-12-18T15:43:48.282Z,-0.10
2022-12-18T15:46:22.933Z,-0.09
2022-12-18T15:48:55.423Z,-0.08
2022-12-18T15:51:29.636Z,-0.09
2022-12-18T15:53:59.115Z,-0.11
2022-12-18T15:56:25.426Z,-0.12
2022-12-18T15:58:52.535Z,-0.11
2022-12-18T16:01:19.183Z,-0.12
2022-12-18T16:03:46.028Z,-0.08
2022-12-18T16:06:12.507Z,-0.09
2022-12-18T16:08:38.810Z,-0.10
2022-12-18T16:11:10.179Z,-0.11
2022-12-18T16:13:36.473Z,-0.12
2022-12-18T16:16:02.942Z,-0.11
2022-12-18T16:18:29.332Z,-0.09
2022-12-18T16:20:55.680Z,-0.12
2022-12-18T16:23:21.984Z,-0.14
2022-12-18T16:25:48.336Z,-0.13
2022-12-18T16:28:14.635Z,-0.12
2022-12-18T16:30:40.927Z,-0.15
2022-12-18T16:33:07.675Z,-0.09
2022-12-18T16:35:34.525Z,-0.11
2022-12-18T16:38:00.832Z,-0.11
2022-12-18T16:40:27.292Z,-0.11
2022-12-18T16:42:53.660Z,-0.10
2022-12-18T16:45:20.030Z,-0.08
2022-12-18T16:47:46.458Z,-0.13
2022-12-18T16:50:13.054Z,-0.09
2022-12-18T16:52:39.791Z,-0.08
2022-12-18T16:55:07.211Z,-0.07
2022-12-18T16:57:33.863Z,-0.07
2022-12-18T17:00:05.115Z,-0.08
2022-12-18T17:02:32.942Z,-0.09
2022-12-18T17:04:59.523Z,-0.10
2022-12-18T17:07:26.966Z,-0.09
2022-12-18T17:09:53.469Z,-0.08
2022-12-18T17:12:20.432Z,-0.08
2022-12-18T17:14:46.862Z,-0.09
2022-12-18T17:17:22.349Z,-0.07
2022-12-18T17:19:49.916Z,-0.05
2022-12-18T17:22:16.268Z,-0.08
2022-12-18T17:24:42.630Z,-0.12
2022-12-18T17:27:08.969Z,-0.06
2022-12-18T17:29:35.582Z,-0.07
2022-12-18T17:32:01.901Z,-0.06
2022-12-18T17:34:28.590Z,-0.07
2022-12-18T17:36:56.467Z,-0.06
2022-12-18T17:39:22.859Z,-0.09
2022-12-18T17:41:49.983Z,-0.11
2022-12-18T17:44:18.366Z,-0.10
2022-12-18T17:46:46.333Z,-0.09
2022-12-18T17:49:14.383Z,-0.05
2022-12-18T17:51:41.412Z,-0.04
2022-12-18T17:54:08.190Z,-0.06
2022-12-18T17:56:34.579Z,-0.06
2022-12-18T17:59:00.990Z,-0.04
2022-12-18T18:01:28.041Z,-0.05
2022-12-18T18:03:55.134Z,-0.01
2022-12-18T18:06:22.859Z,-0.02
2022-12-18T18:08:50.891Z,-0.02
2022-12-18T18:11:19.796Z,0.01
2022-12-18T18:13:47.426Z,-0.01
2022-12-18T18:16:13.902Z,0.01
2022-12-18T18:18:40.374Z,0.02
2022-12-18T18:21:08.719Z,-0.02
2022-12-18T18:23:36.023Z,0.02
2022-12-18T18:26:04.500Z,0.01
2022-12-18T18:28:31.577Z,0.03
2022-12-18T18:30:58.746Z,0.03
2022-12-18T18:33:25.055Z,0.01
2022-12-18T18:35:54.197Z,0.03
2022-12-18T18:38:21.254Z,0.10
2022-12-18T18:40:47.619Z,0.08
2022-12-18T18:43:14.078Z,0.12
2022-12-18T18:45:40.459Z,0.14
2022-12-18T18:48:08.484Z,0.19
2022-12-18T18:50:34.801Z,0.22
2022-12-18T18:53:01.155Z,0.21
2022-12-18T18:55:28.551Z,0.24
2022-12-18T18:57:54.890Z,0.27
2022-12-18T19:00:21.386Z,0.27
2022-12-18T19:02:47.778Z,0.31
2022-12-18T19:05:14.318Z,0.37
2022-12-18T19:07:40.660Z,0.35
2022-12-18T19:10:07.746Z,0.32
2022-12-18T19:12:35.112Z,0.41
2022-12-18T19:15:03.606Z,0.45
2022-12-18T19:17:31.445Z,0.40
2022-12-18T19:19:57.985Z,0.45
2022-12-18T19:22:24.491Z,0.43
2022-12-18T19:24:51.255Z,0.45
2022-12-18T19:27:17.792Z,0.49
2022-12-18T19:29:44.179Z,0.50
2022-12-18T19:32:10.641Z,0.52
2022-12-18T19:34:38.774Z,0.50
2022-12-18T19:37:07.424Z,0.52
2022-12-18T19:39:34.018Z,0.54
2022-12-18T19:42:00.539Z,0.54
2022-12-18T19:44:26.871Z,0.55
2022-12-18T19:46:53.194Z,0.55
2022-12-18T19:49:22.532Z,0.56
2022-12-18T19:51:50.446Z,0.57
2022-12-18T19:54:17.832Z,0.53
2022-12-18T19:56:45.172Z,0.47
2022-12-18T19:59:11.627Z,0.42
2022-12-18T20:01:39.437Z,0.36
2022-12-18T20:04:06.142Z,0.33
2022-12-18T20:06:45.684Z,0.31
2022-12-18T20:09:12.108Z,0.27
2022-12-18T20:11:41.785Z,0.19
2022-12-18T20:14:12.165Z,0.19
2022-12-18T20:16:39.623Z,0.11
2022-12-18T20:19:07.836Z,0.15
2022-12-18T20:21:34.542Z,0.16
2022-12-18T20:24:00.823Z,0.16
2022-12-18T20:26:27.883Z,0.16
2022-12-18T20:28:55.276Z,0.12
2022-12-18T20:31:22.002Z,0.09
2022-12-18T20:33:49.932Z,0.07
2022-12-18T20:36:21.182Z,0.05
2022-12-18T20:38:49.335Z,0.06
2022-12-18T20:41:18.775Z,0.06
2022-12-18T20:43:45.926Z,0.04
2022-12-18T20:46:15.386Z,0.05
2022-12-18T20:48:42.857Z,0.01
2022-12-18T20:51:12.623Z,-0.06
2022-12-18T20:53:41.678Z,0.04
2022-12-18T20:56:17.779Z,-0.02
2022-12-18T20:58:48.078Z,0.02
2022-12-18T21:01:17.616Z,0.00
2022-12-18T21:03:45.428Z,0.04
2022-12-18T21:06:12.712Z,0.04
2022-12-18T21:08:39.015Z,0.02
2022-12-18T21:11:28.075Z,0.03
2022-12-18T21:13:54.394Z,0.01
2022-12-18T21:16:20.791Z,0.03
2022-12-18T21:18:47.160Z,0.05
2022-12-18T21:21:13.572Z,0.05
2022-12-18T21:23:40.215Z,0.06
2022-12-18T21:26:20.143Z,0.09
2022-12-18T21:28:47.515Z,0.07
2022-12-18T21:31:14.315Z,0.09
2022-12-18T21:33:40.884Z,0.10
2022-12-18T21:36:07.893Z,0.11
2022-12-18T21:38:34.442Z,0.13
2022-12-18T21:41:00.877Z,0.12
2022-12-18T21:43:27.283Z,0.18
2022-12-18T21:45:56.669Z,0.17
2022-12-18T21:48:25.000Z,0.19
2022-12-18T21:50:51.400Z,0.19
2022-12-18T21:53:17.806Z,0.25
2022-12-18T21:55:44.136Z,0.20
2022-12-18T21:58:10.477Z,0.18
2022-12-18T22:00:36.782Z,0.23
2022-12-18T22:03:16.961Z,0.22
2022-12-18T22:05:45.944Z,0.24
2022-12-18T22:08:14.839Z,0.24
2022-12-18T22:10:41.161Z,0.24
2022-12-18T22:13:07.752Z,0.28
2022-12-18T22:15:34.538Z,0.29
2022-12-18T22:18:00.914Z,0.33
2022-12-18T22:20:28.371Z,0.37
2022-12-18T22:22:56.883Z,0.37
2022-12-18T22:25:23.222Z,0.37
2022-12-18T22:27:49.522Z,0.42
2022-12-18T22:30:15.894Z,0.44
2022-12-18T22:32:42.224Z,0.47
2022-12-18T22:35:14.275Z,0.47
2022-12-18T22:37:42.298Z,0.44
2022-12-18T22:40:23.531Z,0.44
2022-12-18T22:42:50.720Z,0.47
2022-12-18T22:45:22.887Z,0.49
2022-12-18T22:47:49.622Z,0.52
2022-12-18T22:50:15.957Z,0.56
2022-12-18T22:52:42.426Z,0.56
2022-12-18T22:55:09.042Z,0.62
2022-12-18T22:57:35.419Z,0.58
2022-12-18T23:00:05.444Z,0.59
2022-12-18T23:02:31.923Z,0.62
2022-12-18T23:04:58.386Z,0.62
2022-12-18T23:07:24.812Z,0.63
2022-12-18T23:09:51.118Z,0.67
2022-12-18T23:12:25.571Z,0.62
2022-12-18T23:14:52.597Z,0.68
2022-12-18T23:17:18.905Z,0.68
2022-12-18T23:19:49.052Z,0.71
2022-12-18T23:22:16.495Z,0.67
2022-12-18T23:24:42.917Z,0.69
2022-12-18T23:27:11.696Z,0.72
2022-12-18T23:29:38.858Z,0.71
2022-12-18T23:32:05.263Z,0.72
2022-12-18T23:34:31.546Z,0.75
2022-12-18T23:36:57.827Z,0.75
2022-12-18T23:39:28.863Z,0.74
2022-12-18T23:42:00.353Z,0.77
2022-12-18T23:44:27.211Z,0.75
2022-12-18T23:46:53.763Z,0.72
2022-12-18T23:49:20.471Z,0.75
2022-12-18T23:51:46.815Z,0.77
2022-12-18T23:54:13.291Z,0.78
2022-12-18T23:56:39.683Z,0.81
2022-12-18T23:59:06.049Z,0.76
